Time;durP1;ratioP1;P1;durP2;ratioP2;P2;SDS_P1;SDS_P2;PMS_P1;PMS_P2;Temp;Humidity;BMP_temperature;BMP_pressure;BME280_temperature;BME280_humidity;BME280_pressure;Samples;Min_cycle;Max_cycle;Signal;HPM_P1;HPM_P2
2021/07/16 00:00:29;;;;;;;19.73;10.20;;;20.60;94.80;;;;;;5076073;28;20468;-75
2021/07/16 00:02:56;;;;;;;23.80;10.97;;;20.60;94.90;;;;;;5076027;28;20880;-75
2021/07/16 00:05:24;;;;;;;23.97;11.53;;;20.50;94.80;;;;;;5075916;28;20465;-75
2021/07/16 00:07:51;;;;;;;17.90;9.80;;;20.50;94.90;;;;;;5076217;28;20445;-75
2021/07/16 00:10:20;;;;;;;18.37;9.90;;;20.50;94.80;;;;;;5075974;28;20447;-75
2021/07/16 00:12:48;;;;;;;15.87;9.60;;;20.50;94.80;;;;;;5075024;28;20539;-75
2021/07/16 00:15:16;;;;;;;16.23;10.40;;;20.40;94.80;;;;;;5075515;28;20988;-75
2021/07/16 00:17:44;;;;;;;19.10;10.60;;;20.50;94.70;;;;;;5075830;28;20444;-75
2021/07/16 00:20:11;;;;;;;16.27;9.40;;;20.50;94.70;;;;;;5075742;28;20441;-75
2021/07/16 00:22:40;;;;;;;15.17;9.57;;;20.40;94.60;;;;;;5075619;28;20503;-75
2021/07/16 00:25:09;;;;;;;13.20;9.83;;;20.40;94.80;;;;;;5075581;28;20471;-75
2021/07/16 00:27:36;;;;;;;18.40;9.27;;;20.50;94.90;;;;;;5075893;28;20444;-75
2021/07/16 00:30:05;;;;;;;14.40;10.40;;;20.50;94.80;;;;;;5075596;28;20445;-75
2021/07/16 00:32:32;;;;;;;15.37;9.37;;;20.40;94.70;;;;;;5075556;28;20441;-75
2021/07/16 00:34:59;;;;;;;18.80;9.80;;;20.40;94.70;;;;;;5075372;28;20464;-75
2021/07/16 00:37:25;;;;;;;12.43;8.80;;;20.40;94.70;;;;;;5075085;28;20939;-75
2021/07/16 00:39:53;;;;;;;17.30;10.20;;;20.40;94.70;;;;;;5075381;28;20448;-75
2021/07/16 00:42:20;;;;;;;19.10;10.20;;;20.40;94.60;;;;;;5075278;28;20476;-75
2021/07/16 00:44:47;;;;;;;13.27;9.27;;;20.40;94.60;;;;;;5075360;28;20468;-75
2021/07/16 00:47:13;;;;;;;16.30;10.03;;;20.30;94.60;;;;;;5076069;28;20448;-75
2021/07/16 00:49:40;;;;;;;14.13;9.73;;;20.30;94.60;;;;;;5075159;28;20453;-75
2021/07/16 00:52:08;;;;;;;13.60;9.60;;;20.30;94.60;;;;;;5074858;28;20445;-75
2021/07/16 00:54:35;;;;;;;19.67;10.70;;;20.30;95.00;;;;;;5075098;28;20472;-75
2021/07/16 00:57:05;;;;;;;15.47;11.10;;;20.30;94.60;;;;;;5075116;28;20436;-75
2021/07/16 00:59:32;;;;;;;16.27;9.87;;;20.30;94.50;;;;;;5074787;28;20903;-75
2021/07/16 01:02:01;;;;;;;17.97;9.00;;;20.20;94.50;;;;;;5074958;28;20476;-75
2021/07/16 01:04:28;;;;;;;13.93;8.50;;;20.20;94.70;;;;;;5074812;28;20464;-75
2021/07/16 01:06:54;;;;;;;20.40;9.63;;;20.20;94.70;;;;;;5074558;28;20935;-75
2021/07/16 01:09:21;;;;;;;21.43;10.43;;;20.20;94.70;;;;;;5074825;28;20468;-75
2021/07/16 01:11:48;;;;;;;17.80;9.80;;;20.20;94.70;;;;;;5075008;28;20436;-75
2021/07/16 01:14:17;;;;;;;14.73;9.40;;;20.20;94.60;;;;;;5074853;28;20465;-75
2021/07/16 01:16:44;;;;;;;14.17;8.60;;;20.20;94.60;;;;;;5074638;28;20441;-75
2021/07/16 01:19:16;;;;;;;17.20;9.17;;;20.10;94.50;;;;;;5074528;28;20453;-75
2021/07/16 01:21:43;;;;;;;15.43;8.80;;;20.10;94.50;;;;;;5074503;28;20464;-75
2021/07/16 01:24:11;;;;;;;12.83;10.27;;;20.10;94.50;;;;;;5074312;28;20469;-75
2021/07/16 01:26:38;;;;;;;14.90;9.60;;;20.10;94.40;;;;;;5074411;28;20453;-75
2021/07/16 01:29:05;;;;;;;19.00;10.40;;;20.10;94.50;;;;;;5074394;28;20448;-75
2021/07/16 01:31:32;;;;;;;17.57;10.47;;;20.10;94.50;;;;;;5075190;28;20479;-75
2021/07/16 01:33:59;;;;;;;19.10;10.60;;;20.00;94.50;;;;;;5074269;28;20472;-75
2021/07/16 01:36:26;;;;;;;15.07;10.30;;;20.00;94.60;;;;;;5073975;28;20949;-75
2021/07/16 01:38:53;;;;;;;14.93;9.60;;;19.90;94.40;;;;;;5073909;28;20444;-75
2021/07/16 01:41:21;;;;;;;15.20;9.77;;;19.90;94.40;;;;;;5074127;28;20534;-75
2021/07/16 01:43:48;;;;;;;13.73;9.20;;;19.90;94.40;;;;;;5073761;28;20938;-75
2021/07/16 01:46:14;;;;;;;13.03;9.43;;;19.90;94.50;;;;;;5074059;28;20471;-75
2021/07/16 01:48:41;;;;;;;18.83;10.37;;;19.80;94.40;;;;;;5074041;28;20455;-75
2021/07/16 01:51:08;;;;;;;17.77;10.60;;;19.80;94.50;;;;;;5073652;28;20827;-74
2021/07/16 01:53:35;;;;;;;16.00;10.47;;;19.80;94.40;;;;;;5073924;28;20444;-74
2021/07/16 01:56:02;;;;;;;19.67;10.57;;;19.80;94.40;;;;;;5073865;28;20833;-75
2021/07/16 01:58:30;;;;;;;17.23;10.33;;;19.80;94.40;;;;;;5073896;28;20444;-75
2021/07/16 02:00:57;;;;;;;17.90;10.90;;;19.80;94.50;;;;;;5073817;28;20451;-75
2021/07/16 02:03:23;;;;;;;15.80;10.20;;;19.80;94.50;;;;;;5074221;28;20480;-75
2021/07/16 02:05:50;;;;;;;17.40;8.33;;;19.80;94.60;;;;;;5074010;28;20468;-75
2021/07/16 02:08:19;;;;;;;14.60;9.10;;;19.80;94.60;;;;;;5073768;28;20444;-75
2021/07/16 02:10:47;;;;;;;15.00;9.03;;;19.80;94.60;;;;;;5073746;28;20445;-75
2021/07/16 02:13:14;;;;;;;14.97;9.60;;;19.90;94.60;;;;;;5073310;28;20847;-75
2021/07/16 02:15:46;;;;;;;11.37;9.40;;;19.90;94.40;;;;;;5073643;28;20456;-75
2021/07/16 02:18:13;;;;;;;20.63;9.87;;;19.90;94.40;;;;;;5073718;28;20436;-75
2021/07/16 02:20:42;;;;;;;16.50;9.47;;;19.90;94.20;;;;;;5073682;28;20471;-75
2021/07/16 02:23:11;;;;;;;13.13;8.33;;;19.90;94.00;;;;;;5073718;28;20484;-75
2021/07/16 02:25:39;;;;;;;18.83;9.00;;;19.80;94.00;;;;;;5073105;28;20841;-75
2021/07/16 02:28:09;;;;;;;13.67;8.87;;;19.80;94.10;;;;;;5073581;28;20476;-75
2021/07/16 02:30:35;;;;;;;16.33;8.77;;;19.90;94.20;;;;;;5073461;28;20459;-75
2021/07/16 02:33:04;;;;;;;17.13;9.07;;;19.90;94.00;;;;;;5073473;28;20490;-75
2021/07/16 02:35:32;;;;;;;14.10;8.90;;;19.90;93.90;;;;;;5072874;28;20471;-75
2021/07/16 02:38:01;;;;;;;16.00;9.27;;;19.90;93.90;;;;;;5073401;28;20490;-75
2021/07/16 02:40:29;;;;;;;15.77;8.47;;;19.80;93.80;;;;;;5073516;28;20444;-75
2021/07/16 02:42:55;;;;;;;14.83;7.87;;;19.80;93.90;;;;;;5073568;28;20477;-75
2021/07/16 02:45:24;;;;;;;25.70;8.70;;;19.80;93.90;;;;;;5073259;28;20472;-75
2021/07/16 02:47:51;;;;;;;12.23;8.23;;;19.80;93.80;;;;;;5073304;28;20440;-75
2021/07/16 02:50:22;;;;;;;10.57;7.80;;;19.80;93.80;;;;;;5073035;28;20460;-75
2021/07/16 02:52:50;;;;;;;18.83;8.10;;;19.70;93.80;;;;;;5073360;28;20428;-75
2021/07/16 02:55:17;;;;;;;18.97;8.73;;;19.70;93.70;;;;;;5073190;28;20464;-75
2021/07/16 02:57:44;;;;;;;11.20;8.50;;;19.70;93.70;;;;;;5073290;28;20474;-75
2021/07/16 03:00:13;;;;;;;9.77;7.47;;;19.70;93.80;;;;;;5072885;28;20441;-75
2021/07/16 03:02:40;;;;;;;12.70;8.70;;;19.70;93.80;;;;;;5073341;28;20476;-75
2021/07/16 03:05:08;;;;;;;12.10;8.07;;;19.80;93.80;;;;;;5073034;28;20890;-75
2021/07/16 03:07:37;;;;;;;12.93;7.73;;;19.80;93.70;;;;;;5073132;28;20448;-75
2021/07/16 03:10:06;;;;;;;11.67;8.30;;;19.80;93.60;;;;;;5073104;28;20845;-75
2021/07/16 03:12:33;;;;;;;20.13;8.50;;;19.80;93.60;;;;;;5073080;28;20439;-75
2021/07/16 03:15:00;;;;;;;16.33;8.03;;;19.80;93.60;;;;;;5073055;28;20468;-75
2021/07/16 03:17:26;;;;;;;13.73;7.30;;;19.80;93.50;;;;;;5072980;28;20444;-75
2021/07/16 03:19:53;;;;;;;13.93;7.10;;;19.80;93.50;;;;;;5072986;28;20444;-75
2021/07/16 03:22:20;;;;;;;14.00;8.33;;;19.70;93.40;;;;;;5072865;28;20472;-75
2021/07/16 03:24:48;;;;;;;9.77;7.37;;;19.70;93.50;;;;;;5072580;28;20464;-75
2021/07/16 03:27:14;;;;;;;9.50;7.10;;;19.70;93.50;;;;;;5073164;28;20448;-75
2021/07/16 03:29:41;;;;;;;19.20;7.20;;;19.70;93.50;;;;;;5072594;28;20950;-75
2021/07/16 03:32:08;;;;;;;15.60;7.30;;;19.70;93.40;;;;;;5072898;28;20448;-75
2021/07/16 03:34:35;;;;;;;17.43;7.70;;;19.70;93.40;;;;;;5072748;28;20460;-75
2021/07/16 03:37:02;;;;;;;13.50;8.17;;;19.70;93.50;;;;;;5072804;28;20456;-75
2021/07/16 03:39:28;;;;;;;13.80;7.50;;;19.70;93.40;;;;;;5072791;28;20444;-75
2021/07/16 03:41:56;;;;;;;13.87;8.47;;;19.70;93.30;;;;;;5073004;28;20476;-77
2021/07/16 03:44:23;;;;;;;11.60;7.70;;;19.70;93.40;;;;;;5073010;28;20460;-77
2021/07/16 03:46:50;;;;;;;19.60;8.40;;;19.70;93.30;;;;;;5073640;28;20440;-77
2021/07/16 03:49:16;;;;;;;10.70;7.07;;;19.70;93.20;;;;;;5076006;28;20938;-77
2021/07/16 03:51:43;;;;;;;12.73;7.60;;;19.70;93.20;;;;;;5076334;28;20421;-77
2021/07/16 03:54:10;;;;;;;13.33;7.13;;;19.70;93.20;;;;;;5076289;28;20468;-77
2021/07/16 03:56:36;;;;;;;10.20;8.17;;;19.70;93.30;;;;;;5076246;28;20432;-77
2021/07/16 03:59:04;;;;;;;16.13;7.00;;;19.60;93.30;;;;;;5075810;28;20448;-77
2021/07/16 04:01:31;;;;;;;13.53;7.87;;;19.60;93.40;;;;;;5076131;28;20451;-77
2021/07/16 04:03:58;;;;;;;16.40;6.87;;;19.60;93.40;;;;;;5075897;28;20477;-77
2021/07/16 04:06:24;;;;;;;11.93;7.80;;;19.60;93.30;;;;;;5075724;28;20957;-77
2021/07/16 04:08:59;;;;;;;13.00;7.07;;;19.60;93.30;;;;;;5075984;28;20449;-77
2021/07/16 04:11:26;;;;;;;15.13;9.00;;;19.60;93.40;;;;;;5076064;28;20560;-77
2021/07/16 04:13:53;;;;;;;23.07;9.10;;;19.60;93.40;;;;;;5075872;28;20437;-77
2021/07/16 04:16:21;;;;;;;9.67;7.10;;;19.60;93.40;;;;;;5075599;28;20907;-77
2021/07/16 04:18:48;;;;;;;10.07;6.47;;;19.60;93.40;;;;;;5075832;28;20444;-77
2021/07/16 04:21:15;;;;;;;13.50;7.10;;;19.60;93.30;;;;;;5075811;28;20445;-77
2021/07/16 04:23:41;;;;;;;17.40;8.23;;;19.60;93.30;;;;;;5075686;28;20477;-77
2021/07/16 04:26:08;;;;;;;12.97;7.10;;;19.60;93.20;;;;;;5075346;28;20461;-77
2021/07/16 04:28:35;;;;;;;11.57;8.00;;;19.60;93.10;;;;;;5075608;28;20813;-77
2021/07/16 04:31:01;;;;;;;17.73;7.93;;;19.60;93.00;;;;;;5075534;28;20453;-77
2021/07/16 04:33:29;;;;;;;15.63;8.43;;;19.60;93.00;;;;;;5075560;28;20440;-77
2021/07/16 04:35:56;;;;;;;13.57;8.30;;;19.50;92.90;;;;;;5075439;28;20481;-77
2021/07/16 04:38:23;;;;;;;15.10;8.70;;;19.50;93.00;;;;;;5075729;28;20447;-77
2021/07/16 04:40:49;;;;;;;14.97;8.13;;;19.50;93.10;;;;;;5075469;28;20429;-77
2021/07/16 04:43:16;;;;;;;14.07;9.53;;;19.50;93.20;;;;;;5075578;28;20476;-77
2021/07/16 04:45:43;;;;;;;12.57;8.20;;;19.40;93.20;;;;;;5075862;28;20460;-77
2021/07/16 04:48:09;;;;;;;14.27;7.90;;;19.50;93.30;;;;;;5075552;28;20441;-77
2021/07/16 04:50:39;;;;;;;17.97;8.87;;;19.40;93.40;;;;;;5075181;28;21030;-77
2021/07/16 04:53:06;;;;;;;17.00;9.40;;;19.30;93.30;;;;;;5075211;28;20441;-77
2021/07/16 04:55:32;;;;;;;12.47;8.33;;;19.30;93.30;;;;;;5075084;28;20495;-77
2021/07/16 04:57:59;;;;;;;14.47;8.30;;;19.30;93.30;;;;;;5074600;28;20456;-77
2021/07/16 05:00:26;;;;;;;12.00;7.33;;;19.30;93.30;;;;;;5075024;28;20478;-77
2021/07/16 05:02:52;;;;;;;9.67;7.67;;;19.30;93.30;;;;;;5074929;28;20483;-77
2021/07/16 05:05:19;;;;;;;10.90;7.50;;;19.40;93.30;;;;;;5074897;28;20472;-77
2021/07/16 05:07:47;;;;;;;15.20;8.17;;;19.40;93.20;;;;;;5074656;28;20806;-77
2021/07/16 05:10:14;;;;;;;12.77;7.67;;;19.40;93.30;;;;;;5074897;28;20436;-77
2021/07/16 05:12:41;;;;;;;13.60;8.97;;;19.50;93.20;;;;;;5074759;28;20417;-77
2021/07/16 05:15:09;;;;;;;16.23;7.97;;;19.50;93.20;;;;;;5074654;28;20840;-77
2021/07/16 05:17:36;;;;;;;10.63;8.43;;;19.50;93.00;;;;;;5074612;28;20448;-77
2021/07/16 05:20:04;;;;;;;12.73;8.50;;;19.60;93.00;;;;;;5074602;28;20482;-77
2021/07/16 05:22:31;;;;;;;14.40;8.77;;;19.60;92.90;;;;;;5074115;28;21008;-77
2021/07/16 05:24:59;;;;;;;13.00;8.30;;;19.50;92.90;;;;;;5074074;28;21005;-77
2021/07/16 05:27:26;;;;;;;14.67;8.47;;;19.60;92.80;;;;;;5074467;28;20523;-77
2021/07/16 05:29:53;;;;;;;20.13;9.30;;;19.60;92.90;;;;;;5074383;28;20835;-77
2021/07/16 05:32:19;;;;;;;19.40;9.80;;;19.50;92.90;;;;;;5075186;28;20836;-77
2021/07/16 05:34:46;;;;;;;17.33;8.73;;;19.50;92.90;;;;;;5074245;28;20541;-77
2021/07/16 05:37:13;;;;;;;10.00;7.87;;;19.50;92.90;;;;;;5074272;28;20428;-77
2021/07/16 05:39:40;;;;;;;13.00;8.50;;;19.50;93.00;;;;;;5074193;28;20448;-77
2021/07/16 05:42:08;;;;;;;13.70;8.17;;;19.50;93.20;;;;;;5073845;28;20957;-77
2021/07/16 05:44:35;;;;;;;10.53;9.10;;;19.50;93.30;;;;;;5074266;28;20484;-77
2021/07/16 05:47:01;;;;;;;15.50;8.93;;;19.50;93.30;;;;;;5074105;28;20436;-77
2021/07/16 05:49:28;;;;;;;10.93;8.50;;;19.40;93.30;;;;;;5073848;28;20460;-77
2021/07/16 05:51:55;;;;;;;12.43;8.03;;;19.40;93.40;;;;;;5073969;28;20452;-77
2021/07/16 05:54:21;;;;;;;16.97;8.10;;;19.40;93.30;;;;;;5073966;28;20469;-77
2021/07/16 05:56:48;;;;;;;10.80;7.80;;;19.50;93.40;;;;;;5074198;28;20441;-77
2021/07/16 05:59:18;;;;;;;14.30;8.73;;;19.50;93.50;;;;;;5073934;28;20875;-77
2021/07/16 06:01:45;;;;;;;11.40;8.80;;;19.50;93.30;;;;;;5074180;28;20506;-77
2021/07/16 06:04:11;;;;;;;13.37;8.73;;;19.40;93.20;;;;;;5073653;28;20489;-77
2021/07/16 06:06:38;;;;;;;11.80;8.90;;;19.40;93.30;;;;;;5073800;28;20486;-77
2021/07/16 06:09:06;;;;;;;20.33;11.90;;;19.40;93.30;;;;;;5073263;28;20425;-77
2021/07/16 06:11:34;;;;;;;13.07;8.97;;;19.50;93.30;;;;;;5073829;28;20445;-77
2021/07/16 06:14:00;;;;;;;10.60;8.70;;;19.50;93.40;;;;;;5073649;28;20474;-77
2021/07/16 06:16:28;;;;;;;9.67;8.20;;;19.50;93.20;;;;;;5073395;28;20946;-77
2021/07/16 06:18:55;;;;;;;18.50;11.80;;;19.50;93.10;;;;;;5073691;28;20449;-77
2021/07/16 06:21:22;;;;;;;14.10;10.10;;;19.50;93.20;;;;;;5073638;28;20486;-77
2021/07/16 06:23:49;;;;;;;17.97;8.57;;;19.50;93.30;;;;;;5073526;28;20467;-77
2021/07/16 06:26:15;;;;;;;19.40;10.57;;;19.50;93.20;;;;;;5073487;28;20502;-77
2021/07/16 06:28:42;;;;;;;13.90;10.67;;;19.50;93.30;;;;;;5073587;28;20494;-77
2021/07/16 06:31:09;;;;;;;17.60;10.57;;;19.50;93.10;;;;;;5073769;28;20428;-77
2021/07/16 06:33:37;;;;;;;17.93;10.13;;;19.40;92.80;;;;;;5073505;28;20429;-77
2021/07/16 06:36:04;;;;;;;19.83;10.73;;;19.30;92.80;;;;;;5073142;28;20966;-77
2021/07/16 06:38:31;;;;;;;18.00;10.33;;;19.20;92.80;;;;;;5073469;28;20476;-77
2021/07/16 06:40:58;;;;;;;20.37;9.60;;;19.20;93.10;;;;;;5073391;28;20452;-77
2021/07/16 06:43:24;;;;;;;16.70;10.93;;;19.10;93.20;;;;;;5073257;28;20507;-77
2021/07/16 06:45:51;;;;;;;17.73;10.53;;;19.10;93.20;;;;;;5072999;28;21005;-77
2021/07/16 06:48:19;;;;;;;15.80;10.30;;;19.20;93.30;;;;;;5073406;28;20449;-77
2021/07/16 06:50:47;;;;;;;24.13;11.60;;;19.20;93.30;;;;;;5073393;28;20837;-77
2021/07/16 06:53:13;;;;;;;13.57;9.50;;;19.20;93.20;;;;;;5073447;28;20432;-77
2021/07/16 06:55:40;;;;;;;18.40;10.43;;;19.20;93.20;;;;;;5073011;28;20970;-78
2021/07/16 06:58:07;;;;;;;17.37;10.23;;;19.30;93.00;;;;;;5073893;28;20436;-77
2021/07/16 07:00:34;;;;;;;13.80;9.10;;;19.30;92.80;;;;;;5073624;28;20452;-77
2021/07/16 07:03:01;;;;;;;25.20;11.00;;;19.40;92.70;;;;;;5073827;28;20476;-78
2021/07/16 07:05:28;;;;;;;13.77;9.50;;;19.40;92.70;;;;;;5074340;28;20492;-78
2021/07/16 07:07:56;;;;;;;29.03;12.20;;;19.50;92.60;;;;;;5074002;28;20444;-77
2021/07/16 07:10:23;;;;;;;18.83;10.80;;;19.50;92.60;;;;;;5073747;28;20444;-77
2021/07/16 07:12:50;;;;;;;25.17;10.30;;;19.60;92.60;;;;;;5073951;28;20965;-77
2021/07/16 07:15:17;;;;;;;19.97;11.37;;;19.70;92.30;;;;;;5073365;28;20997;-77
2021/07/16 07:17:44;;;;;;;20.23;10.30;;;19.70;91.80;;;;;;5073585;28;20449;-78
2021/07/16 07:20:12;;;;;;;24.20;10.40;;;19.80;91.80;;;;;;5073996;28;20444;-78
2021/07/16 07:22:39;;;;;;;24.50;11.50;;;20.00;91.80;;;;;;5076977;28;20476;-77
2021/07/16 07:25:09;;;;;;;25.37;10.60;;;20.00;91.50;;;;;;5077009;28;20488;-77
2021/07/16 07:27:36;;;;;;;20.17;10.47;;;20.10;91.40;;;;;;5076683;28;20435;-77
2021/07/16 07:30:03;;;;;;;24.60;11.53;;;20.30;91.40;;;;;;5077138;28;20431;-79
2021/07/16 07:32:29;;;;;;;27.83;10.63;;;20.40;91.10;;;;;;5077313;28;20486;-78
2021/07/16 07:34:56;;;;;;;24.80;10.40;;;20.60;90.90;;;;;;5077462;28;20460;-77
2021/07/16 07:37:23;;;;;;;20.57;8.50;;;20.70;90.40;;;;;;5078034;28;20452;-78
2021/07/16 07:39:50;;;;;;;18.33;9.80;;;20.80;90.00;;;;;;5077415;28;20435;-77
2021/07/16 07:42:21;;;;;;;16.70;8.10;;;20.90;89.20;;;;;;5076499;28;20836;-77
2021/07/16 07:44:48;;;;;;;14.33;7.60;;;21.00;87.30;;;;;;5077019;28;20517;-77
2021/07/16 07:47:15;;;;;;;14.23;7.73;;;21.20;87.40;;;;;;5076888;28;20455;-77
2021/07/16 07:49:42;;;;;;;13.27;6.13;;;21.40;86.80;;;;;;5076623;28;20894;-77
2021/07/16 07:52:09;;;;;;;13.23;6.10;;;21.60;86.40;;;;;;5076493;28;20459;-77
2021/07/16 07:54:36;;;;;;;13.07;6.13;;;21.80;85.40;;;;;;5076435;28;20534;-77
2021/07/16 07:57:03;;;;;;;15.10;7.70;;;22.00;84.20;;;;;;5076663;28;20478;-77
2021/07/16 07:59:31;;;;;;;15.97;6.20;;;22.10;82.60;;;;;;5076514;28;20467;-77
2021/07/16 08:01:58;;;;;;;15.80;7.00;;;22.10;81.20;;;;;;5076285;28;20455;-77
2021/07/16 08:04:24;;;;;;;12.10;6.47;;;22.30;80.90;;;;;;5076378;28;21031;-77
2021/07/16 08:06:51;;;;;;;17.50;5.80;;;22.30;80.00;;;;;;5075969;28;20869;-77
2021/07/16 08:09:18;;;;;;;14.97;6.20;;;22.30;80.00;;;;;;5076019;28;20429;-77
2021/07/16 08:11:44;;;;;;;11.67;6.83;;;22.40;80.50;;;;;;5076147;28;20429;-78
2021/07/16 08:14:11;;;;;;;18.27;6.40;;;22.60;80.50;;;;;;5075687;28;21182;-78
2021/07/16 08:16:45;;;;;;;12.67;5.90;;;22.70;79.70;;;;;;5076588;28;20424;-79
2021/07/16 08:19:11;;;;;;;12.37;5.87;;;22.90;79.40;;;;;;5077704;28;20430;-80
2021/07/16 08:21:38;;;;;;;13.30;5.90;;;23.10;78.40;;;;;;5077914;28;20428;-79
2021/07/16 08:24:05;;;;;;;11.50;5.80;;;23.30;77.20;;;;;;5077842;28;20472;-80
2021/07/16 08:26:32;;;;;;;11.97;6.00;;;23.40;76.20;;;;;;5078495;28;20433;-80
2021/07/16 08:28:59;;;;;;;10.17;4.93;;;23.50;75.70;;;;;;5077331;28;20836;-80
2021/07/16 08:31:25;;;;;;;9.47;4.90;;;23.50;73.60;;;;;;5077660;28;20438;-79
2021/07/16 08:33:53;;;;;;;13.17;5.13;;;23.50;73.40;;;;;;5075716;28;20466;-77
2021/07/16 08:36:20;;;;;;;12.40;5.27;;;23.60;74.60;;;;;;5075786;28;20425;-78
2021/07/16 08:38:47;;;;;;;14.50;6.40;;;23.70;74.20;;;;;;5075805;28;20478;-78
2021/07/16 08:41:14;;;;;;;9.80;5.53;;;23.70;73.80;;;;;;5075956;28;20440;-78
2021/07/16 08:43:42;;;;;;;9.60;4.80;;;23.70;73.10;;;;;;5075324;28;20970;-78
2021/07/16 08:46:10;;;;;;;7.20;4.70;;;23.70;71.20;;;;;;5075753;28;20888;-78
2021/07/16 08:48:40;;;;;;;12.43;5.83;;;23.70;71.20;;;;;;5075714;28;20428;-78
2021/07/16 08:51:09;;;;;;;12.20;6.50;;;23.70;71.60;;;;;;5075427;28;20461;-77
2021/07/16 08:53:36;;;;;;;13.20;6.00;;;23.70;71.90;;;;;;5075193;28;20498;-77
2021/07/16 08:56:02;;;;;;;10.60;5.33;;;23.80;72.20;;;;;;5074992;28;20469;-77
2021/07/16 08:58:29;;;;;;;9.70;5.10;;;23.80;72.50;;;;;;5075121;28;20422;-77
2021/07/16 09:00:56;;;;;;;8.10;4.90;;;23.80;72.20;;;;;;5075123;28;20816;-77
2021/07/16 09:03:23;;;;;;;8.43;4.97;;;23.80;72.40;;;;;;5074838;28;20436;-78
2021/07/16 09:05:49;;;;;;;7.27;3.50;;;23.70;71.50;;;;;;5074831;28;20464;-77
2021/07/16 09:08:19;;;;;;;6.00;3.97;;;23.70;71.70;;;;;;5074687;28;20425;-76
2021/07/16 09:10:48;;;;;;;6.13;4.07;;;23.80;71.30;;;;;;5074853;28;20441;-76
2021/07/16 09:13:16;;;;;;;6.13;4.00;;;23.90;70.90;;;;;;5074776;28;20494;-76
2021/07/16 09:15:51;;;;;;;6.73;4.17;;;24.10;71.00;;;;;;5074692;28;20463;-76
2021/07/16 09:18:21;;;;;;;5.77;3.80;;;24.10;69.10;;;;;;5074713;28;20424;-76
2021/07/16 09:20:49;;;;;;;5.43;3.30;;;24.10;69.20;;;;;;5074664;28;20433;-76
2021/07/16 09:23:18;;;;;;;3.83;3.53;;;24.10;67.50;;;;;;5074611;28;20455;-75
2021/07/16 09:26:00;;;;;;;4.20;3.80;;;24.00;68.70;;;;;;5074365;28;20499;-76
2021/07/16 09:28:27;;;;;;;5.40;4.00;;;23.90;68.30;;;;;;5074559;28;20439;-76
2021/07/16 09:31:07;;;;;;;5.30;4.77;;;23.90;68.70;;;;;;5074436;28;20821;-76
2021/07/16 09:33:45;;;;;;;9.83;4.33;;;23.90;68.70;;;;;;5074455;28;20447;-76
2021/07/16 09:36:13;;;;;;;7.67;4.50;;;23.80;69.50;;;;;;5074402;28;20579;-76
2021/07/16 09:38:41;;;;;;;5.40;4.27;;;23.80;69.30;;;;;;5074244;28;20531;-76
2021/07/16 09:41:09;;;;;;;5.10;4.07;;;23.90;70.20;;;;;;5074483;28;20440;-76
2021/07/16 09:43:36;;;;;;;5.10;4.37;;;24.10;70.00;;;;;;5074068;28;20455;-76
2021/07/16 09:46:04;;;;;;;5.37;3.40;;;24.30;69.80;;;;;;5074051;28;20862;-76
2021/07/16 09:48:33;;;;;;;6.70;4.10;;;24.60;69.50;;;;;;5074114;28;20437;-76
2021/07/16 09:51:17;;;;;;;6.23;3.53;;;24.80;68.60;;;;;;5073653;28;20484;-76
2021/07/16 09:53:48;;;;;;;7.37;3.70;;;24.80;68.00;;;;;;5074019;28;20478;-76
2021/07/16 09:56:17;;;;;;;6.70;3.90;;;24.80;67.90;;;;;;5073930;28;20551;-76
2021/07/16 09:58:45;;;;;;;6.70;4.13;;;24.70;67.20;;;;;;5074014;28;20452;-76
2021/07/16 10:01:12;;;;;;;4.90;3.73;;;24.60;67.70;;;;;;5073686;28;20813;-76
2021/07/16 10:03:40;;;;;;;5.70;3.53;;;24.50;68.10;;;;;;5073761;28;20440;-76
2021/07/16 10:06:12;;;;;;;5.97;4.23;;;24.50;68.40;;;;;;5073750;28;20472;-76
2021/07/16 10:08:40;;;;;;;8.33;4.27;;;24.40;69.00;;;;;;5073835;28;20432;-76
2021/07/16 10:11:08;;;;;;;6.70;3.90;;;24.30;69.00;;;;;;5073427;28;20428;-76
2021/07/16 10:13:36;;;;;;;6.40;4.37;;;24.30;69.20;;;;;;5074496;28;20468;-76
2021/07/16 10:16:05;;;;;;;7.03;3.90;;;24.40;68.90;;;;;;5073612;28;20497;-76
2021/07/16 10:18:32;;;;;;;6.90;4.50;;;24.50;68.50;;;;;;5073576;28;20447;-76
2021/07/16 10:20:59;;;;;;;9.03;3.70;;;24.70;68.30;;;;;;5073422;28;20961;-76
2021/07/16 10:23:27;;;;;;;6.03;3.90;;;24.70;67.60;;;;;;5073571;28;20474;-76
2021/07/16 10:25:55;;;;;;;5.67;3.47;;;24.80;67.60;;;;;;5073363;28;20491;-76
2021/07/16 10:28:41;;;;;;;8.97;4.10;;;24.80;67.10;;;;;;5073536;28;20445;-77
2021/07/16 10:31:39;;;;;;;9.13;4.33;;;25.00;66.50;;;;;;5073494;28;20429;-76
2021/07/16 10:34:30;;;;;;;9.20;4.10;;;25.00;66.10;;;;;;5011462;28;20428;-76
2021/07/16 10:36:58;;;;;;;7.80;3.90;;;25.10;65.80;;;;;;5069384;28;20989;-76
2021/07/16 10:39:43;;;;;;;6.47;3.90;;;25.30;64.70;;;;;;5073142;28;20898;-76
2021/07/16 10:42:43;;;;;;;11.33;4.80;;;25.40;64.20;;;;;;5073381;28;20432;-75
2021/07/16 10:45:13;;;;;;;8.67;3.93;;;25.60;63.00;;;;;;5073167;28;20567;-76
2021/07/16 10:47:41;;;;;;;8.00;3.97;;;25.70;63.00;;;;;;5073342;28;20532;-76
2021/07/16 10:50:10;;;;;;;12.40;3.90;;;25.90;62.00;;;;;;5073232;28;20467;-76
2021/07/16 10:52:51;;;;;;;8.43;4.30;;;26.30;60.90;;;;;;5074014;28;20848;-76
2021/07/16 10:55:20;;;;;;;11.83;3.97;;;26.60;59.70;;;;;;5073436;28;20460;-77
2021/07/16 10:57:49;;;;;;;8.80;4.00;;;26.70;59.20;;;;;;5077473;28;20432;-76
2021/07/16 11:00:51;;;;;;;10.47;4.30;;;26.70;59.40;;;;;;5077455;28;20494;-74
2021/07/16 11:03:19;;;;;;;9.33;4.30;;;26.60;58.80;;;;;;5077358;28;20424;-77
2021/07/16 11:05:53;;;;;;;10.47;4.03;;;26.50;59.00;;;;;;5077413;28;20541;-77
2021/07/16 11:08:42;;;;;;;8.87;4.80;;;26.70;58.90;;;;;;5076994;28;20931;-76
2021/07/16 11:11:09;;;;;;;12.20;4.60;;;26.80;58.10;;;;;;5075579;28;20455;-76
2021/07/16 11:13:38;;;;;;;11.77;4.90;;;26.90;57.70;;;;;;5077205;28;20425;-76
2021/07/16 11:16:43;;;;;;;8.13;4.00;;;27.00;57.80;;;;;;5076699;28;20809;-74
2021/07/16 11:19:26;;;;;;;11.50;5.07;;;27.20;57.60;;;;;;5076978;28;20438;-76
2021/07/16 11:22:01;;;;;;;9.70;4.07;;;27.30;56.60;;;;;;5077445;28;20424;-74
2021/07/16 11:24:31;;;;;;;9.93;4.50;;;27.40;56.70;;;;;;5077599;28;21006;-76
2021/07/16 11:27:00;;;;;;;8.20;4.10;;;27.30;56.50;;;;;;5077016;28;20433;-76
2021/07/16 11:29:29;;;;;;;8.17;4.13;;;27.20;56.40;;;;;;5077184;28;20848;-77
2021/07/16 11:32:06;;;;;;;17.63;4.90;;;27.10;57.10;;;;;;5077168;28;20922;-77
2021/07/16 11:34:34;;;;;;;10.10;4.63;;;26.90;57.30;;;;;;5077693;28;20452;-77
2021/07/16 11:37:40;;;;;;;11.40;4.60;;;26.70;57.50;;;;;;5076622;28;20464;-76
2021/07/16 11:40:09;;;;;;;10.27;4.40;;;26.50;57.90;;;;;;5077955;28;20806;-73
2021/07/16 11:42:37;;;;;;;11.10;4.70;;;26.20;58.60;;;;;;5075455;28;20444;-73
2021/07/16 11:45:07;;;;;;;9.67;4.80;;;26.10;59.10;;;;;;5076367;28;20834;-73
2021/07/16 11:47:35;;;;;;;11.23;4.90;;;26.10;59.40;;;;;;5076245;28;20527;-73
2021/07/16 11:50:04;;;;;;;9.87;4.80;;;26.10;59.60;;;;;;5076218;28;20457;-73
2021/07/16 11:52:33;;;;;;;12.63;4.60;;;26.10;59.80;;;;;;5076335;28;20444;-73
2021/07/16 11:55:06;;;;;;;11.43;4.90;;;26.10;59.40;;;;;;5076179;28;20470;-73
2021/07/16 11:57:32;;;;;;;11.77;4.43;;;26.20;58.80;;;;;;5076243;28;20436;-73
2021/07/16 11:59:59;;;;;;;14.70;5.13;;;26.10;57.70;;;;;;5076144;28;20447;-73
2021/07/16 12:02:26;;;;;;;10.80;4.40;;;26.00;58.60;;;;;;5076145;28;20448;-73
2021/07/16 12:04:59;;;;;;;11.03;4.97;;;26.10;58.90;;;;;;5075680;28;20480;-73
2021/07/16 12:07:34;;;;;;;7.33;4.17;;;26.10;59.20;;;;;;5074917;28;20453;-73
2021/07/16 12:10:07;;;;;;;10.40;4.70;;;26.30;59.70;;;;;;5076126;28;20424;-73
2021/07/16 12:12:35;;;;;;;9.70;4.40;;;26.30;58.80;;;;;;5076032;28;20429;-73
2021/07/16 12:15:05;;;;;;;7.77;4.33;;;26.50;58.70;;;;;;5075838;28;20559;-73
2021/07/16 12:17:34;;;;;;;11.13;4.90;;;26.50;58.70;;;;;;5076075;28;20456;-73
2021/07/16 12:20:05;;;;;;;12.97;5.30;;;26.50;57.30;;;;;;5076183;28;20448;-73
2021/07/16 12:22:34;;;;;;;9.67;4.73;;;26.50;58.10;;;;;;5075893;28;20436;-73
2021/07/16 12:25:03;;;;;;;14.40;5.23;;;26.40;58.10;;;;;;5075563;28;20486;-73
2021/07/16 12:27:29;;;;;;;15.63;5.03;;;26.20;58.60;;;;;;5076031;28;20452;-73
2021/07/16 12:29:58;;;;;;;16.43;5.30;;;26.10;59.10;;;;;;5075354;28;20930;-73
2021/07/16 12:32:36;;;;;;;11.63;5.03;;;26.00;59.50;;;;;;5075620;28;20467;-73
2021/07/16 12:35:15;;;;;;;16.10;4.70;;;26.00;59.50;;;;;;5075476;28;20543;-73
2021/07/16 12:37:43;;;;;;;13.27;5.37;;;26.00;59.10;;;;;;5075461;28;20428;-71
2021/07/16 12:40:13;;;;;;;8.47;4.23;;;26.10;59.30;;;;;;5076206;28;20521;-71
2021/07/16 12:42:40;;;;;;;8.53;4.50;;;26.40;59.20;;;;;;5075428;28;20445;-71
2021/07/16 12:45:10;;;;;;;9.23;4.90;;;26.50;58.40;;;;;;5075494;28;20575;-71